createdAt,value
2022-11-13T00:00:55.453Z,78.77
2022-11-13T00:03:22.074Z,79.21
2022-11-13T00:05:48.643Z,79.07
2022-11-13T00:08:15.277Z,79.26
2022-11-13T00:10:41.765Z,79.41
2022-11-13T00:13:08.308Z,79.31
2022-11-13T00:15:35.008Z,79.62
2022-11-13T00:18:02.970Z,79.61
2022-11-13T00:20:29.741Z,79.60
2022-11-13T00:22:56.225Z,79.46
2022-11-13T00:25:22.762Z,80.45
2022-11-13T00:27:49.224Z,80.31
2022-11-13T00:30:19.259Z,80.06
2022-11-13T00:32:46.242Z,80.08
2022-11-13T00:35:12.679Z,80.15
2022-11-13T00:37:39.192Z,79.72
2022-11-13T00:40:06.002Z,79.76
2022-11-13T00:42:32.480Z,80.16
2022-11-13T00:44:58.988Z,80.04
2022-11-13T00:47:25.432Z,80.01
2022-11-13T00:49:51.874Z,80.06
2022-11-13T00:52:18.341Z,80.15
2022-11-13T00:54:44.749Z,80.15
2022-11-13T00:57:11.199Z,79.79
2022-11-13T00:59:37.636Z,79.92
2022-11-13T01:02:04.156Z,80.39
2022-11-13T01:04:30.668Z,80.92
2022-11-13T01:06:57.233Z,80.99
2022-11-13T01:09:23.688Z,81.09
2022-11-13T01:11:50.151Z,81.39
2022-11-13T01:14:16.602Z,81.97
2022-11-13T01:16:43.013Z,82.41
2022-11-13T01:19:09.506Z,82.45
2022-11-13T01:21:35.992Z,83.23
2022-11-13T01:24:02.448Z,84.20
2022-11-13T01:26:30.510Z,84.62
2022-11-13T01:28:58.664Z,85.58
2022-11-13T01:31:28.463Z,85.17
2022-11-13T01:33:55.384Z,85.76
2022-11-13T01:36:27.431Z,85.86
2022-11-13T01:38:54.531Z,86.55
2022-11-13T01:41:29.921Z,86.44
2022-11-13T01:43:57.358Z,87.10
2022-11-13T01:46:34.947Z,87.32
2022-11-13T01:49:10.634Z,87.45
2022-11-13T01:51:45.064Z,87.74
2022-11-13T01:54:16.078Z,87.76
2022-11-13T01:56:43.342Z,87.43
2022-11-13T01:59:15.605Z,87.18
2022-11-13T02:01:42.291Z,86.54
2022-11-13T02:04:08.893Z,86.04
2022-11-13T02:06:41.731Z,85.45
2022-11-13T02:09:10.436Z,84.90
2022-11-13T02:11:37.830Z,84.32
2022-11-13T02:14:05.564Z,83.90
2022-11-13T02:16:34.646Z,83.50
2022-11-13T02:19:06.821Z,83.05
2022-11-13T02:21:59.683Z,82.73
2022-11-13T02:24:32.653Z,83.04
2022-11-13T02:27:04.537Z,83.85
2022-11-13T02:29:31.404Z,83.96
2022-11-13T02:31:57.860Z,84.55
2022-11-13T02:34:24.292Z,85.65
2022-11-13T02:36:51.097Z,85.93
2022-11-13T02:39:17.540Z,86.04
2022-11-13T02:41:44.041Z,86.25
2022-11-13T02:44:10.526Z,86.55
2022-11-13T02:46:37.345Z,86.37
2022-11-13T02:49:04.399Z,86.21
2022-11-13T02:51:30.981Z,86.13
2022-11-13T02:53:57.553Z,85.93
2022-11-13T02:56:23.976Z,85.80
2022-11-13T02:58:50.568Z,85.36
2022-11-13T03:01:17.274Z,85.66
2022-11-13T03:03:59.081Z,85.36
2022-11-13T03:06:25.601Z,85.51
2022-11-13T03:08:52.068Z,85.54
2022-11-13T03:11:18.548Z,85.33
2022-11-13T03:13:45.088Z,84.97
2022-11-13T03:16:14.473Z,84.68
2022-11-13T03:18:41.531Z,84.41
2022-11-13T03:21:13.170Z,84.50
2022-11-13T03:23:41.223Z,84.02
2022-11-13T03:26:13.324Z,83.75
2022-11-13T03:28:39.979Z,83.31
2022-11-13T03:31:06.737Z,83.29
2022-11-13T03:33:33.331Z,83.13
2022-11-13T03:35:59.873Z,83.11
2022-11-13T03:38:26.806Z,82.97
2022-11-13T03:40:53.565Z,82.63
2022-11-13T03:43:20.030Z,82.27
2022-11-13T03:45:47.680Z,82.75
2022-11-13T03:48:15.820Z,83.18
2022-11-13T03:50:45.692Z,83.35
2022-11-13T03:53:12.785Z,83.00
2022-11-13T03:55:39.223Z,83.40
2022-11-13T03:58:06.063Z,83.02
2022-11-13T04:00:33.047Z,83.34
2022-11-13T04:02:59.528Z,83.29
2022-11-13T04:05:26.627Z,83.28
2022-11-13T04:07:53.286Z,83.83
2022-11-13T04:10:19.843Z,83.18
2022-11-13T04:12:46.346Z,83.44
2022-11-13T04:15:12.829Z,83.32
2022-11-13T04:17:39.988Z,83.47
2022-11-13T04:20:07.154Z,83.48
2022-11-13T04:22:33.643Z,83.47
2022-11-13T04:25:00.160Z,83.33
2022-11-13T04:27:26.646Z,82.91
2022-11-13T04:29:53.221Z,83.40
2022-11-13T04:32:19.685Z,83.41
2022-11-13T04:34:46.104Z,83.04
2022-11-13T04:37:12.547Z,82.88
2022-11-13T04:39:38.985Z,83.52
2022-11-13T04:42:23.869Z,83.75
2022-11-13T04:44:50.285Z,83.67
2022-11-13T04:47:16.766Z,82.91
2022-11-13T04:49:43.196Z,83.29
2022-11-13T04:52:09.663Z,82.58
2022-11-13T04:54:36.085Z,82.73
2022-11-13T04:57:02.527Z,82.61
2022-11-13T04:59:29.055Z,83.19
2022-11-13T05:01:55.821Z,83.97
2022-11-13T05:04:22.811Z,83.84
2022-11-13T05:06:49.370Z,84.26
2022-11-13T05:09:16.288Z,84.41
2022-11-13T05:11:42.789Z,83.88
2022-11-13T05:14:12.232Z,84.21
2022-11-13T05:16:38.906Z,84.18
2022-11-13T05:19:09.166Z,84.34
2022-11-13T05:21:37.252Z,84.17
2022-11-13T05:24:04.788Z,84.03
2022-11-13T05:26:31.395Z,84.58
2022-11-13T05:28:59.220Z,84.58
2022-11-13T05:31:26.388Z,84.44
2022-11-13T05:33:53.621Z,84.29
2022-11-13T05:36:21.791Z,84.09
2022-11-13T05:38:48.353Z,83.95
2022-11-13T05:41:20.585Z,84.45
2022-11-13T05:43:47.828Z,85.00
2022-11-13T05:46:19.396Z,84.78
2022-11-13T05:48:47.238Z,84.30
2022-11-13T05:51:19.359Z,84.80
2022-11-13T05:53:46.409Z,84.88
2022-11-13T05:56:27.788Z,85.37
2022-11-13T05:58:55.279Z,85.16
2022-11-13T06:01:31.066Z,86.14
2022-11-13T06:03:59.530Z,86.00
2022-11-13T06:06:27.353Z,86.41
2022-11-13T06:08:58.982Z,86.65
2022-11-13T06:11:27.217Z,87.00
2022-11-13T06:13:55.071Z,86.74
2022-11-13T06:16:26.937Z,87.30
2022-11-13T06:18:58.443Z,87.07
2022-11-13T06:21:27.917Z,86.75
2022-11-13T06:23:54.555Z,86.22
2022-11-13T06:26:23.426Z,85.31
2022-11-13T06:28:50.185Z,85.21
2022-11-13T06:31:19.330Z,84.86
2022-11-13T06:33:45.823Z,84.89
2022-11-13T06:36:20.586Z,85.64
2022-11-13T06:38:47.999Z,85.49
2022-11-13T06:41:16.892Z,85.20
2022-11-13T06:43:43.687Z,84.75
2022-11-13T06:46:13.103Z,84.57
2022-11-13T06:48:39.554Z,84.69
2022-11-13T06:51:09.773Z,83.94
2022-11-13T06:53:36.246Z,84.07
2022-11-13T06:56:05.844Z,83.62
2022-11-13T06:58:33.048Z,83.54
2022-11-13T07:01:08.555Z,83.49
2022-11-13T07:03:35.255Z,83.54
2022-11-13T07:06:07.570Z,82.92
2022-11-13T07:08:34.779Z,82.54
2022-11-13T07:11:02.371Z,82.19
2022-11-13T07:13:29.182Z,81.69
2022-11-13T07:16:05.982Z,80.71
2022-11-13T07:18:36.464Z,80.68
2022-11-13T07:21:08.749Z,80.39
2022-11-13T07:23:37.096Z,80.58
2022-11-13T07:26:04.415Z,80.39
2022-11-13T07:28:31.239Z,79.93
2022-11-13T07:30:59.052Z,79.78
2022-11-13T07:33:25.808Z,79.56
2022-11-13T07:35:59.504Z,78.88
2022-11-13T07:38:26.543Z,78.59
2022-11-13T07:40:53.623Z,77.50
2022-11-13T07:43:20.106Z,76.08
2022-11-13T07:45:46.624Z,76.34
2022-11-13T07:48:13.097Z,75.66
2022-11-13T07:50:39.932Z,75.76
2022-11-13T07:53:08.118Z,75.30
2022-11-13T07:55:36.069Z,74.26
2022-11-13T07:58:04.015Z,73.87
2022-11-13T08:00:33.119Z,73.86
2022-11-13T08:03:09.582Z,72.55
2022-11-13T08:05:36.489Z,71.78
2022-11-13T08:08:03.848Z,71.95
2022-11-13T08:10:30.418Z,71.45
2022-11-13T08:13:08.692Z,71.17
2022-11-13T08:15:35.245Z,70.49
2022-11-13T08:18:04.320Z,70.53
2022-11-13T08:20:31.522Z,69.44
2022-11-13T08:22:59.656Z,69.52
2022-11-13T08:25:27.259Z,68.00
2022-11-13T08:27:54.492Z,68.04
2022-11-13T08:30:21.611Z,67.94
2022-11-13T08:32:48.717Z,67.12
2022-11-13T08:35:19.173Z,67.48
2022-11-13T08:37:46.446Z,66.14
2022-11-13T08:40:12.967Z,66.72
2022-11-13T08:42:39.427Z,66.93
2022-11-13T08:45:06.400Z,65.78
2022-11-13T08:47:32.865Z,65.41
2022-11-13T08:49:59.329Z,67.30
2022-11-13T08:52:25.763Z,67.69
2022-11-13T08:54:52.257Z,66.33
2022-11-13T08:57:18.723Z,69.07
2022-11-13T08:59:45.222Z,69.46
2022-11-13T09:02:15.064Z,69.71
2022-11-13T09:04:42.791Z,68.96
2022-11-13T09:07:09.753Z,67.12
2022-11-13T09:09:36.278Z,68.10
2022-11-13T09:12:02.903Z,68.25
2022-11-13T09:14:30.606Z,66.16
2022-11-13T09:16:57.150Z,68.70
2022-11-13T09:19:23.616Z,66.61
2022-11-13T09:21:51.764Z,67.59
2022-11-13T09:24:18.313Z,65.63
2022-11-13T09:26:44.844Z,65.94
2022-11-13T09:29:12.605Z,66.99
2022-11-13T09:31:41.207Z,66.66
2022-11-13T09:34:08.625Z,67.34
2022-11-13T09:36:35.589Z,64.72
2022-11-13T09:39:02.183Z,60.56
2022-11-13T09:41:34.897Z,60.91
2022-11-13T09:44:13.535Z,59.28
2022-11-13T09:47:06.369Z,59.03
2022-11-13T09:49:37.523Z,59.66
2022-11-13T09:52:11.316Z,62.51
2022-11-13T09:54:38.618Z,59.10
2022-11-13T09:57:31.344Z,58.97
2022-11-13T10:00:03.340Z,61.46
2022-11-13T10:03:01.027Z,57.46
2022-11-13T10:05:42.678Z,58.46
2022-11-13T10:08:36.751Z,57.58
2022-11-13T10:11:25.934Z,57.06
2022-11-13T10:14:01.749Z,55.75
2022-11-13T10:17:06.919Z,55.82
2022-11-13T10:19:36.351Z,58.48
2022-11-13T10:25:15.296Z,57.75
2022-11-13T10:27:42.607Z,58.21
2022-11-13T10:30:17.705Z,56.54
2022-11-13T10:32:45.140Z,58.23
2022-11-13T10:35:36.551Z,56.45
2022-11-13T10:38:11.461Z,58.88
2022-11-13T10:40:39.597Z,55.38
2022-11-13T10:43:16.578Z,55.18
2022-11-13T10:45:55.494Z,54.17
2022-11-13T10:48:42.152Z,52.56
2022-11-13T10:51:31.240Z,54.23
2022-11-13T10:53:58.431Z,53.46
2022-11-13T10:56:33.594Z,53.20
2022-11-13T10:59:11.388Z,54.41
2022-11-13T11:01:38.557Z,54.67
2022-11-13T11:04:12.633Z,55.64
2022-11-13T11:09:30.984Z,52.21
2022-11-13T11:12:27.115Z,52.19
2022-11-13T11:14:58.997Z,52.69
2022-11-13T11:17:27.923Z,51.75
2022-11-13T11:20:26.798Z,50.65
2022-11-13T11:23:00.952Z,51.83
2022-11-13T11:25:39.036Z,50.91
2022-11-13T11:28:17.384Z,48.89
2022-11-13T11:30:52.429Z,50.17
2022-11-13T11:33:27.249Z,46.88
2022-11-13T11:36:04.244Z,46.15
2022-11-13T11:38:42.419Z,46.66
2022-11-13T11:41:16.522Z,45.62
2022-11-13T11:43:54.387Z,46.15
2022-11-13T11:46:24.220Z,45.68
2022-11-13T11:48:51.232Z,46.47
2022-11-13T11:51:26.821Z,44.64
2022-11-13T11:54:14.629Z,44.20
2022-11-13T11:56:52.446Z,43.59
2022-11-13T11:59:44.925Z,43.48
2022-11-13T12:02:31.895Z,43.60
2022-11-13T12:05:31.085Z,41.86
2022-11-13T12:08:22.483Z,43.08
2022-11-13T12:11:29.466Z,42.91
2022-11-13T12:14:33.442Z,40.60
2022-11-13T12:17:17.998Z,38.90
2022-11-13T12:19:58.966Z,38.21
2022-11-13T12:22:46.538Z,38.39
2022-11-13T12:25:29.372Z,38.29
2022-11-13T12:28:15.566Z,37.88
2022-11-13T12:30:54.724Z,38.62
2022-11-13T12:33:27.079Z,39.22
2022-11-13T12:35:54.193Z,38.56
2022-11-13T12:38:26.225Z,38.98
2022-11-13T12:41:04.737Z,38.84
2022-11-13T12:43:56.606Z,40.12
2022-11-13T12:46:34.636Z,39.30
2022-11-13T12:49:01.168Z,39.83
2022-11-13T12:51:39.068Z,38.55
2022-11-13T12:54:05.877Z,37.52
2022-11-13T12:56:34.126Z,41.11
2022-11-13T12:59:33.815Z,36.27
2022-11-13T13:02:21.879Z,35.48
2022-11-13T13:05:07.723Z,35.39
2022-11-13T13:08:28.904Z,35.51
2022-11-13T13:11:06.891Z,36.86
2022-11-13T13:14:00.798Z,36.26
2022-11-13T13:16:29.515Z,40.27
2022-11-13T13:19:28.971Z,35.42
2022-11-13T13:21:55.832Z,36.06
2022-11-13T13:24:34.458Z,36.53
2022-11-13T13:27:01.688Z,35.45
2022-11-13T13:29:30.058Z,37.74
2022-11-13T13:32:33.935Z,35.85
2022-11-13T13:35:19.893Z,36.19
2022-11-13T13:38:00.550Z,36.83
2022-11-13T13:40:41.334Z,37.60
2022-11-13T13:43:44.799Z,37.53
2022-11-13T13:46:22.884Z,39.25
2022-11-13T13:48:53.207Z,42.60
2022-11-13T13:51:36.020Z,37.25
2022-11-13T13:54:07.723Z,41.70
2022-11-13T13:56:40.487Z,39.75
2022-11-13T13:59:16.272Z,38.57
2022-11-13T14:01:53.885Z,38.64
2022-11-13T14:04:22.943Z,41.50
2022-11-13T14:06:54.473Z,38.52
2022-11-13T14:09:23.750Z,40.87
2022-11-13T14:12:06.227Z,39.33
2022-11-13T14:14:39.300Z,39.91
2022-11-13T14:17:06.951Z,40.99
2022-11-13T14:19:33.435Z,41.16
2022-11-13T14:22:04.416Z,40.32
2022-11-13T14:24:48.689Z,39.98
2022-11-13T14:27:22.637Z,40.61
2022-11-13T14:29:52.409Z,42.33
2022-11-13T14:32:25.387Z,40.58
2022-11-13T14:34:54.539Z,40.72
2022-11-13T14:37:32.908Z,41.84
2022-11-13T14:40:03.356Z,41.36
2022-11-13T14:42:36.704Z,41.68
2022-11-13T14:45:23.034Z,41.57
2022-11-13T14:48:15.125Z,42.48
2022-11-13T14:50:56.444Z,42.86
2022-11-13T14:53:37.527Z,42.75
2022-11-13T14:56:09.091Z,44.79
2022-11-13T14:58:47.334Z,44.62
2022-11-13T15:01:22.508Z,43.31
2022-11-13T15:03:50.356Z,44.19
2022-11-13T15:06:24.224Z,45.40
2022-11-13T15:08:54.980Z,45.33
2022-11-13T15:11:23.712Z,46.00
2022-11-13T15:13:50.413Z,46.73
2022-11-13T15:16:27.530Z,47.09
2022-11-13T15:19:12.536Z,47.46
2022-11-13T15:21:40.133Z,48.34
2022-11-13T15:24:06.726Z,49.40
2022-11-13T15:26:33.172Z,49.80
2022-11-13T15:28:59.692Z,49.90
2022-11-13T15:31:37.761Z,50.74
2022-11-13T15:34:05.118Z,50.86
2022-11-13T15:36:31.698Z,51.39
2022-11-13T15:39:00.393Z,52.02
2022-11-13T15:41:29.900Z,52.18
2022-11-13T15:43:57.474Z,52.46
2022-11-13T15:46:24.901Z,52.74
2022-11-13T15:48:51.428Z,53.06
2022-11-13T15:51:34.399Z,54.33
2022-11-13T15:54:03.139Z,54.95
2022-11-13T15:56:30.934Z,54.08
2022-11-13T15:58:57.403Z,54.10
2022-11-13T16:01:24.091Z,54.71
2022-11-13T16:03:51.072Z,54.89
2022-11-13T16:06:20.577Z,55.48
2022-11-13T16:08:47.731Z,55.76
2022-11-13T16:11:15.613Z,55.82
2022-11-13T16:13:42.559Z,56.41
2022-11-13T16:16:24.080Z,58.10
2022-11-13T16:18:51.884Z,57.83
2022-11-13T16:21:21.911Z,60.22
2022-11-13T16:23:48.458Z,57.51
2022-11-13T16:26:19.306Z,58.08
2022-11-13T16:29:12.306Z,58.38
2022-11-13T16:31:32.461Z,58.19
2022-11-13T16:33:58.939Z,58.58
2022-11-13T16:36:27.633Z,59.48
2022-11-13T16:38:54.122Z,59.79
2022-11-13T16:41:20.595Z,60.45
2022-11-13T16:43:47.056Z,60.61
2022-11-13T16:46:31.254Z,60.76
2022-11-13T16:48:58.277Z,60.05
2022-11-13T16:51:25.456Z,60.62
2022-11-13T16:53:52.146Z,60.98
2022-11-13T16:56:29.227Z,62.04
2022-11-13T16:58:58.912Z,61.20
2022-11-13T17:01:26.131Z,61.54
2022-11-13T17:03:53.433Z,61.50
2022-11-13T17:06:28.335Z,64.43
2022-11-13T17:08:57.413Z,62.73
2022-11-13T17:11:25.890Z,62.40
2022-11-13T17:13:57.797Z,63.52
2022-11-13T17:16:25.814Z,62.55
2022-11-13T17:18:55.686Z,62.78
2022-11-13T17:21:24.751Z,64.47
2022-11-13T17:24:06.537Z,65.13
2022-11-13T17:26:33.012Z,64.31
2022-11-13T17:28:59.909Z,64.01
2022-11-13T17:31:26.749Z,64.24
2022-11-13T17:33:54.195Z,66.24
2022-11-13T17:36:21.595Z,65.30
2022-11-13T17:38:48.490Z,65.14
2022-11-13T17:41:16.017Z,65.26
2022-11-13T17:43:42.923Z,65.03
2022-11-13T17:46:14.626Z,65.17
2022-11-13T17:48:41.250Z,64.99
2022-11-13T17:51:12.052Z,65.29
2022-11-13T17:53:38.736Z,65.80
2022-11-13T17:56:09.286Z,65.87
2022-11-13T17:58:41.686Z,66.14
2022-11-13T18:01:11.718Z,65.69
2022-11-13T18:03:38.715Z,66.68
2022-11-13T18:06:19.557Z,67.31
2022-11-13T18:08:47.165Z,66.56
2022-11-13T18:11:19.198Z,66.35
2022-11-13T18:13:50.869Z,66.54
2022-11-13T18:16:26.726Z,68.58
2022-11-13T18:18:55.598Z,67.50
2022-11-13T18:21:33.189Z,67.68
2022-11-13T18:24:20.340Z,69.36
2022-11-13T18:26:46.937Z,67.51
2022-11-13T18:29:13.538Z,68.07
2022-11-13T18:31:40.191Z,67.75
2022-11-13T18:34:07.792Z,68.17
2022-11-13T18:36:34.967Z,68.86
2022-11-13T18:39:03.238Z,68.53
2022-11-13T18:41:30.407Z,69.31
2022-11-13T18:43:56.886Z,69.99
2022-11-13T18:46:23.405Z,70.68
2022-11-13T18:48:50.118Z,70.04
2022-11-13T18:51:20.122Z,71.06
2022-11-13T18:53:50.813Z,70.68
2022-11-13T18:56:22.242Z,73.79
2022-11-13T18:58:50.589Z,70.35
2022-11-13T19:01:32.079Z,73.04
2022-11-13T19:06:52.004Z,72.57
2022-11-13T19:09:19.435Z,72.36
2022-11-13T19:11:46.220Z,72.22
2022-11-13T19:14:14.664Z,74.76
2022-11-13T19:16:41.218Z,73.13
2022-11-13T19:19:22.814Z,73.49
2022-11-13T19:21:49.581Z,73.05
2022-11-13T19:24:17.001Z,72.42
2022-11-13T19:26:44.228Z,74.43
2022-11-13T19:29:10.809Z,73.41
2022-11-13T19:31:37.275Z,72.64
2022-11-13T19:34:07.617Z,73.87
2022-11-13T19:36:35.238Z,72.87
2022-11-13T19:39:02.099Z,74.24
2022-11-13T19:41:29.769Z,74.67
2022-11-13T19:43:59.563Z,76.74
2022-11-13T19:46:26.599Z,76.14
2022-11-13T19:48:53.093Z,75.16
2022-11-13T19:51:22.189Z,74.54
2022-11-13T19:53:53.470Z,75.13
2022-11-13T19:56:21.623Z,74.70
2022-11-13T19:58:50.103Z,74.91
2022-11-13T20:01:23.486Z,75.55
2022-11-13T20:04:02.567Z,75.94
2022-11-13T20:06:31.940Z,77.50
2022-11-13T20:09:05.731Z,76.16
2022-11-13T20:11:33.891Z,75.56
2022-11-13T20:14:00.330Z,75.13
2022-11-13T20:16:27.313Z,74.92
2022-11-13T20:18:56.796Z,75.15
2022-11-13T20:21:27.926Z,75.41
2022-11-13T20:23:59.066Z,75.21
2022-11-13T20:26:26.239Z,74.78
2022-11-13T20:28:52.808Z,75.67
2022-11-13T20:31:24.221Z,77.70
2022-11-13T20:33:52.704Z,77.48
2022-11-13T20:36:19.277Z,76.51
2022-11-13T20:38:50.809Z,76.52
2022-11-13T20:41:20.477Z,76.48
2022-11-13T20:43:48.144Z,77.79
2022-11-13T20:46:16.179Z,76.85
2022-11-13T20:48:43.182Z,78.32
2022-11-13T20:51:15.550Z,77.63
2022-11-13T20:53:42.713Z,76.86
2022-11-13T20:56:09.537Z,77.94
2022-11-13T20:58:36.077Z,78.38
2022-11-13T21:01:14.364Z,80.31
2022-11-13T21:03:42.710Z,78.98
2022-11-13T21:06:11.332Z,79.85
2022-11-13T21:08:38.616Z,77.71
2022-11-13T21:11:06.488Z,78.57
2022-11-13T21:13:33.767Z,78.84
2022-11-13T21:16:07.976Z,79.00
2022-11-13T21:18:35.085Z,80.13
2022-11-13T21:21:10.245Z,80.75
2022-11-13T21:23:36.899Z,79.86
2022-11-13T21:26:05.102Z,79.56
2022-11-13T21:28:33.593Z,78.83
2022-11-13T21:31:06.780Z,79.11
2022-11-13T21:33:40.525Z,78.71
2022-11-13T21:36:24.577Z,79.20
2022-11-13T21:38:52.975Z,78.85
2022-11-13T21:41:27.001Z,78.93
2022-11-13T21:44:00.661Z,79.55
2022-11-13T21:46:30.128Z,79.73
2022-11-13T21:49:00.437Z,79.34
2022-11-13T21:51:26.986Z,78.78
2022-11-13T21:53:53.672Z,78.51
2022-11-13T21:56:20.150Z,78.21
2022-11-13T21:58:46.906Z,79.38
2022-11-13T22:01:14.007Z,79.57
2022-11-13T22:03:40.588Z,78.80
2022-11-13T22:06:13.431Z,78.97
2022-11-13T22:08:39.907Z,78.44
2022-11-13T22:11:06.505Z,80.08
2022-11-13T22:13:32.971Z,79.83
2022-11-13T22:15:59.461Z,79.16
2022-11-13T22:18:26.231Z,79.63
2022-11-13T22:20:53.017Z,79.13
2022-11-13T22:23:19.439Z,78.25
2022-11-13T22:25:45.892Z,78.38
2022-11-13T22:28:12.373Z,78.90
2022-11-13T22:30:38.786Z,78.60
2022-11-13T22:33:05.464Z,78.87
2022-11-13T22:35:31.918Z,79.08
2022-11-13T22:37:58.433Z,79.15
2022-11-13T22:40:24.862Z,79.84
2022-11-13T22:42:54.730Z,79.02
2022-11-13T22:45:24.552Z,79.10
2022-11-13T22:47:51.219Z,79.56
2022-11-13T22:50:17.654Z,79.09
2022-11-13T22:52:44.112Z,79.83
2022-11-13T22:55:10.543Z,79.71
2022-11-13T22:57:37.070Z,81.25
2022-11-13T23:00:09.300Z,81.06
2022-11-13T23:02:35.876Z,83.14
2022-11-13T23:05:02.324Z,83.32
2022-11-13T23:07:30.452Z,83.55
2022-11-13T23:09:56.991Z,82.07
2022-11-13T23:12:23.645Z,81.79
2022-11-13T23:14:50.123Z,82.54
2022-11-13T23:17:16.571Z,82.79
2022-11-13T23:19:43.003Z,83.46
2022-11-13T23:22:09.510Z,83.97
2022-11-13T23:24:35.919Z,84.99
2022-11-13T23:27:02.517Z,85.59
2022-11-13T23:29:28.959Z,84.13
2022-11-13T23:31:55.401Z,83.23
2022-11-13T23:34:45.579Z,83.09
2022-11-13T23:37:08.254Z,83.49
2022-11-13T23:39:34.691Z,82.16
2022-11-13T23:42:01.175Z,82.11
2022-11-13T23:44:27.652Z,81.91
2022-11-13T23:46:54.053Z,83.05
2022-11-13T23:49:20.542Z,85.24
2022-11-13T23:51:46.971Z,88.17
2022-11-13T23:54:13.438Z,89.45
2022-11-13T23:56:39.883Z,86.43
2022-11-13T23:59:06.324Z,85.62
